sensor_id;sensor_type;location;lat;lon;timestamp;P1;durP1;ratioP1;P2;durP2;ratioP2
53903;SDS011;39812;52.430;16.936;2023-03-31T00:00:56;14.63;;;7.43;;
53903;SDS011;39812;52.430;16.936;2023-03-31T00:03:24;12.65;;;7.15;;
53903;SDS011;39812;52.430;16.936;2023-03-31T00:05:56;12.82;;;7.85;;
53903;SDS011;39812;52.430;16.936;2023-03-31T00:08:23;13.98;;;7.57;;
53903;SDS011;39812;52.430;16.936;2023-03-31T00:10:56;18.00;;;7.65;;
53903;SDS011;39812;52.430;16.936;2023-03-31T00:13:24;15.10;;;7.93;;
53903;SDS011;39812;52.430;16.936;2023-03-31T00:15:55;15.63;;;8.13;;
53903;SDS011;39812;52.430;16.936;2023-03-31T00:18:22;19.50;;;9.02;;
53903;SDS011;39812;52.430;16.936;2023-03-31T00:20:49;20.58;;;7.95;;
53903;SDS011;39812;52.430;16.936;2023-03-31T00:23:16;14.63;;;7.55;;
53903;SDS011;39812;52.430;16.936;2023-03-31T00:25:51;13.00;;;8.00;;
53903;SDS011;39812;52.430;16.936;2023-03-31T00:28:20;16.13;;;7.10;;
53903;SDS011;39812;52.430;16.936;2023-03-31T00:30:46;12.77;;;7.82;;
53903;SDS011;39812;52.430;16.936;2023-03-31T00:33:12;14.73;;;8.32;;
53903;SDS011;39812;52.430;16.936;2023-03-31T00:35:38;14.00;;;7.93;;
53903;SDS011;39812;52.430;16.936;2023-03-31T00:38:04;15.38;;;7.72;;
53903;SDS011;39812;52.430;16.936;2023-03-31T00:40:33;16.17;;;8.65;;
53903;SDS011;39812;52.430;16.936;2023-03-31T00:42:59;16.98;;;8.07;;
53903;SDS011;39812;52.430;16.936;2023-03-31T00:45:29;16.38;;;8.63;;
53903;SDS011;39812;52.430;16.936;2023-03-31T00:50:31;18.17;;;9.18;;
53903;SDS011;39812;52.430;16.936;2023-03-31T00:53:06;16.98;;;8.90;;
53903;SDS011;39812;52.430;16.936;2023-03-31T00:55:41;15.35;;;9.77;;
53903;SDS011;39812;52.430;16.936;2023-03-31T00:58:16;14.90;;;9.10;;
53903;SDS011;39812;52.430;16.936;2023-03-31T01:00:52;13.60;;;8.80;;
53903;SDS011;39812;52.430;16.936;2023-03-31T01:03:19;20.65;;;10.07;;
53903;SDS011;39812;52.430;16.936;2023-03-31T01:05:53;18.58;;;9.40;;
53903;SDS011;39812;52.430;16.936;2023-03-31T01:08:29;17.38;;;9.30;;
53903;SDS011;39812;52.430;16.936;2023-03-31T01:10:57;18.83;;;9.65;;
53903;SDS011;39812;52.430;16.936;2023-03-31T01:13:27;19.95;;;10.63;;
53903;SDS011;39812;52.430;16.936;2023-03-31T01:15:54;16.90;;;9.18;;
53903;SDS011;39812;52.430;16.936;2023-03-31T01:18:20;14.70;;;9.20;;
53903;SDS011;39812;52.430;16.936;2023-03-31T01:42:33;13.93;;;7.85;;
53903;SDS011;39812;52.430;16.936;2023-03-31T01:47:59;12.40;;;7.25;;
53903;SDS011;39812;52.430;16.936;2023-03-31T01:53:12;12.48;;;6.32;;
53903;SDS011;39812;52.430;16.936;2023-03-31T01:58:51;12.38;;;6.35;;
53903;SDS011;39812;52.430;16.936;2023-03-31T02:01:36;18.90;;;7.28;;
53903;SDS011;39812;52.430;16.936;2023-03-31T02:04:09;12.25;;;6.57;;
53903;SDS011;39812;52.430;16.936;2023-03-31T02:06:47;10.98;;;6.95;;
53903;SDS011;39812;52.430;16.936;2023-03-31T02:09:21;13.20;;;6.90;;
53903;SDS011;39812;52.430;16.936;2023-03-31T02:11:51;15.80;;;7.50;;
53903;SDS011;39812;52.430;16.936;2023-03-31T02:14:21;13.48;;;6.82;;
53903;SDS011;39812;52.430;16.936;2023-03-31T02:16:51;13.65;;;7.43;;
53903;SDS011;39812;52.430;16.936;2023-03-31T02:19:22;11.65;;;6.45;;
53903;SDS011;39812;52.430;16.936;2023-03-31T02:21:51;12.30;;;7.18;;
53903;SDS011;39812;52.430;16.936;2023-03-31T02:24:19;11.25;;;6.65;;
53903;SDS011;39812;52.430;16.936;2023-03-31T02:29:36;11.63;;;6.47;;
53903;SDS011;39812;52.430;16.936;2023-03-31T02:32:10;10.68;;;6.53;;
53903;SDS011;39812;52.430;16.936;2023-03-31T02:34:45;10.80;;;5.68;;
53903;SDS011;39812;52.430;16.936;2023-03-31T02:37:11;9.60;;;5.82;;
53903;SDS011;39812;52.430;16.936;2023-03-31T02:39:37;12.38;;;5.68;;
53903;SDS011;39812;52.430;16.936;2023-03-31T02:42:05;12.38;;;5.85;;
53903;SDS011;39812;52.430;16.936;2023-03-31T02:44:35;9.65;;;5.45;;
53903;SDS011;39812;52.430;16.936;2023-03-31T02:47:02;11.55;;;5.20;;
53903;SDS011;39812;52.430;16.936;2023-03-31T02:49:32;8.57;;;5.20;;
53903;SDS011;39812;52.430;16.936;2023-03-31T02:52:09;10.30;;;5.28;;
53903;SDS011;39812;52.430;16.936;2023-03-31T02:57:45;8.50;;;4.57;;
53903;SDS011;39812;52.430;16.936;2023-03-31T03:05:40;8.18;;;4.85;;
53903;SDS011;39812;52.430;16.936;2023-03-31T03:16:42;10.75;;;4.60;;
53903;SDS011;39812;52.430;16.936;2023-03-31T03:19:16;9.85;;;4.95;;
53903;SDS011;39812;52.430;16.936;2023-03-31T03:21:44;7.93;;;4.63;;
53903;SDS011;39812;52.430;16.936;2023-03-31T03:24:11;10.77;;;5.28;;
53903;SDS011;39812;52.430;16.936;2023-03-31T03:26:41;11.95;;;5.30;;
53903;SDS011;39812;52.430;16.936;2023-03-31T03:29:06;8.40;;;5.53;;
53903;SDS011;39812;52.430;16.936;2023-03-31T03:31:32;7.57;;;4.50;;
53903;SDS011;39812;52.430;16.936;2023-03-31T03:33:58;10.50;;;4.55;;
53903;SDS011;39812;52.430;16.936;2023-03-31T03:36:24;12.73;;;4.93;;
53903;SDS011;39812;52.430;16.936;2023-03-31T03:38:50;10.05;;;5.22;;
53903;SDS011;39812;52.430;16.936;2023-03-31T03:41:16;6.88;;;4.40;;
53903;SDS011;39812;52.430;16.936;2023-03-31T03:43:42;7.40;;;4.60;;
53903;SDS011;39812;52.430;16.936;2023-03-31T03:46:07;6.32;;;4.50;;
53903;SDS011;39812;52.430;16.936;2023-03-31T03:48:33;8.98;;;5.22;;
53903;SDS011;39812;52.430;16.936;2023-03-31T03:50:59;7.43;;;4.63;;
53903;SDS011;39812;52.430;16.936;2023-03-31T03:53:25;9.38;;;4.05;;
53903;SDS011;39812;52.430;16.936;2023-03-31T03:55:51;8.60;;;4.65;;
53903;SDS011;39812;52.430;16.936;2023-03-31T03:58:17;10.38;;;4.70;;
53903;SDS011;39812;52.430;16.936;2023-03-31T04:00:43;7.70;;;4.28;;
53903;SDS011;39812;52.430;16.936;2023-03-31T04:03:10;9.23;;;4.53;;
53903;SDS011;39812;52.430;16.936;2023-03-31T04:05:36;9.23;;;4.07;;
53903;SDS011;39812;52.430;16.936;2023-03-31T04:08:02;8.43;;;4.00;;
53903;SDS011;39812;52.430;16.936;2023-03-31T04:10:28;8.43;;;4.30;;
53903;SDS011;39812;52.430;16.936;2023-03-31T04:12:54;5.95;;;4.07;;
53903;SDS011;39812;52.430;16.936;2023-03-31T04:15:19;6.82;;;3.78;;
53903;SDS011;39812;52.430;16.936;2023-03-31T04:17:45;9.27;;;3.65;;
53903;SDS011;39812;52.430;16.936;2023-03-31T04:20:14;7.53;;;3.65;;
53903;SDS011;39812;52.430;16.936;2023-03-31T04:22:41;10.20;;;3.92;;
53903;SDS011;39812;52.430;16.936;2023-03-31T04:25:11;8.40;;;3.85;;
53903;SDS011;39812;52.430;16.936;2023-03-31T04:27:44;7.63;;;4.03;;
53903;SDS011;39812;52.430;16.936;2023-03-31T04:30:14;6.63;;;3.80;;
53903;SDS011;39812;52.430;16.936;2023-03-31T04:32:48;5.95;;;3.25;;
53903;SDS011;39812;52.430;16.936;2023-03-31T04:35:19;5.97;;;3.47;;
53903;SDS011;39812;52.430;16.936;2023-03-31T04:37:49;8.48;;;3.78;;
53903;SDS011;39812;52.430;16.936;2023-03-31T04:40:16;8.77;;;3.75;;
53903;SDS011;39812;52.430;16.936;2023-03-31T04:42:43;8.32;;;3.67;;
53903;SDS011;39812;52.430;16.936;2023-03-31T04:45:10;6.70;;;3.17;;
53903;SDS011;39812;52.430;16.936;2023-03-31T04:47:36;9.00;;;4.03;;
53903;SDS011;39812;52.430;16.936;2023-03-31T04:50:02;7.10;;;3.40;;
53903;SDS011;39812;52.430;16.936;2023-03-31T04:52:29;8.95;;;4.28;;
53903;SDS011;39812;52.430;16.936;2023-03-31T04:54:55;7.78;;;3.55;;
53903;SDS011;39812;52.430;16.936;2023-03-31T04:57:20;7.32;;;4.10;;
53903;SDS011;39812;52.430;16.936;2023-03-31T04:59:46;7.57;;;3.63;;
53903;SDS011;39812;52.430;16.936;2023-03-31T05:02:11;7.38;;;3.45;;
53903;SDS011;39812;52.430;16.936;2023-03-31T05:04:37;7.80;;;3.60;;
53903;SDS011;39812;52.430;16.936;2023-03-31T05:07:03;7.88;;;4.55;;
53903;SDS011;39812;52.430;16.936;2023-03-31T05:09:29;8.23;;;3.88;;
53903;SDS011;39812;52.430;16.936;2023-03-31T05:11:55;9.00;;;3.92;;
53903;SDS011;39812;52.430;16.936;2023-03-31T05:14:21;8.40;;;3.83;;
53903;SDS011;39812;52.430;16.936;2023-03-31T05:16:47;4.78;;;3.28;;
53903;SDS011;39812;52.430;16.936;2023-03-31T05:19:13;11.32;;;3.92;;
53903;SDS011;39812;52.430;16.936;2023-03-31T05:21:38;9.95;;;3.55;;
53903;SDS011;39812;52.430;16.936;2023-03-31T05:24:04;8.27;;;3.72;;
53903;SDS011;39812;52.430;16.936;2023-03-31T05:26:30;6.50;;;3.45;;
53903;SDS011;39812;52.430;16.936;2023-03-31T05:28:55;5.47;;;3.22;;
53903;SDS011;39812;52.430;16.936;2023-03-31T05:31:21;5.38;;;3.60;;
53903;SDS011;39812;52.430;16.936;2023-03-31T05:33:47;5.10;;;3.10;;
53903;SDS011;39812;52.430;16.936;2023-03-31T05:36:14;9.05;;;3.97;;
53903;SDS011;39812;52.430;16.936;2023-03-31T05:38:41;6.68;;;3.42;;
53903;SDS011;39812;52.430;16.936;2023-03-31T05:41:07;4.80;;;2.53;;
53903;SDS011;39812;52.430;16.936;2023-03-31T05:43:35;6.03;;;3.70;;
53903;SDS011;39812;52.430;16.936;2023-03-31T05:46:01;6.45;;;3.58;;
53903;SDS011;39812;52.430;16.936;2023-03-31T05:48:28;10.32;;;3.22;;
53903;SDS011;39812;52.430;16.936;2023-03-31T05:50:56;5.82;;;3.20;;
53903;SDS011;39812;52.430;16.936;2023-03-31T05:53:23;6.50;;;3.05;;
53903;SDS011;39812;52.430;16.936;2023-03-31T05:55:54;7.10;;;3.65;;
53903;SDS011;39812;52.430;16.936;2023-03-31T05:58:24;9.13;;;3.72;;
53903;SDS011;39812;52.430;16.936;2023-03-31T06:00:50;8.65;;;3.70;;
53903;SDS011;39812;52.430;16.936;2023-03-31T06:03:25;7.30;;;3.10;;
53903;SDS011;39812;52.430;16.936;2023-03-31T06:05:50;11.98;;;3.47;;
53903;SDS011;39812;52.430;16.936;2023-03-31T06:08:18;9.20;;;3.80;;
53903;SDS011;39812;52.430;16.936;2023-03-31T06:10:43;11.90;;;3.78;;
53903;SDS011;39812;52.430;16.936;2023-03-31T06:13:09;8.23;;;3.42;;
53903;SDS011;39812;52.430;16.936;2023-03-31T06:15:35;10.88;;;3.22;;
53903;SDS011;39812;52.430;16.936;2023-03-31T06:18:00;8.52;;;2.97;;
53903;SDS011;39812;52.430;16.936;2023-03-31T06:20:26;12.65;;;4.43;;
53903;SDS011;39812;52.430;16.936;2023-03-31T06:22:52;6.75;;;3.58;;
53903;SDS011;39812;52.430;16.936;2023-03-31T06:25:17;7.85;;;3.08;;
53903;SDS011;39812;52.430;16.936;2023-03-31T06:27:43;7.90;;;3.22;;
53903;SDS011;39812;52.430;16.936;2023-03-31T06:30:09;9.38;;;3.47;;
53903;SDS011;39812;52.430;16.936;2023-03-31T06:32:35;7.10;;;3.22;;
53903;SDS011;39812;52.430;16.936;2023-03-31T06:35:00;6.72;;;3.28;;
53903;SDS011;39812;52.430;16.936;2023-03-31T06:37:26;5.97;;;3.20;;
53903;SDS011;39812;52.430;16.936;2023-03-31T06:39:52;5.22;;;2.78;;
53903;SDS011;39812;52.430;16.936;2023-03-31T06:42:17;8.32;;;3.58;;
53903;SDS011;39812;52.430;16.936;2023-03-31T06:44:43;7.35;;;3.28;;
53903;SDS011;39812;52.430;16.936;2023-03-31T06:47:09;5.38;;;3.08;;
53903;SDS011;39812;52.430;16.936;2023-03-31T06:49:34;6.65;;;3.30;;
53903;SDS011;39812;52.430;16.936;2023-03-31T06:52:00;7.05;;;2.88;;
53903;SDS011;39812;52.430;16.936;2023-03-31T06:54:26;10.32;;;3.30;;
53903;SDS011;39812;52.430;16.936;2023-03-31T06:56:51;7.10;;;3.58;;
53903;SDS011;39812;52.430;16.936;2023-03-31T06:59:17;7.35;;;3.40;;
53903;SDS011;39812;52.430;16.936;2023-03-31T07:01:42;5.32;;;3.05;;
53903;SDS011;39812;52.430;16.936;2023-03-31T07:04:09;6.82;;;3.50;;
53903;SDS011;39812;52.430;16.936;2023-03-31T07:06:35;10.10;;;3.60;;
53903;SDS011;39812;52.430;16.936;2023-03-31T07:09:01;7.63;;;3.67;;
53903;SDS011;39812;52.430;16.936;2023-03-31T07:11:28;7.60;;;3.33;;
53903;SDS011;39812;52.430;16.936;2023-03-31T07:13:54;8.18;;;3.65;;
53903;SDS011;39812;52.430;16.936;2023-03-31T07:16:20;6.70;;;3.08;;
53903;SDS011;39812;52.430;16.936;2023-03-31T07:18:46;11.90;;;3.38;;
53903;SDS011;39812;52.430;16.936;2023-03-31T07:21:12;7.85;;;3.10;;
53903;SDS011;39812;52.430;16.936;2023-03-31T07:23:37;8.35;;;3.20;;
53903;SDS011;39812;52.430;16.936;2023-03-31T07:26:03;7.40;;;2.85;;
53903;SDS011;39812;52.430;16.936;2023-03-31T07:28:30;6.85;;;3.10;;
53903;SDS011;39812;52.430;16.936;2023-03-31T07:30:56;7.38;;;3.17;;
53903;SDS011;39812;52.430;16.936;2023-03-31T07:33:22;7.80;;;3.25;;
53903;SDS011;39812;52.430;16.936;2023-03-31T07:35:48;7.18;;;3.00;;
53903;SDS011;39812;52.430;16.936;2023-03-31T07:38:14;8.02;;;3.60;;
53903;SDS011;39812;52.430;16.936;2023-03-31T07:40:40;5.63;;;2.80;;
53903;SDS011;39812;52.430;16.936;2023-03-31T07:43:08;8.38;;;2.92;;
53903;SDS011;39812;52.430;16.936;2023-03-31T07:45:34;8.35;;;3.47;;
53903;SDS011;39812;52.430;16.936;2023-03-31T07:48:00;6.13;;;3.58;;
53903;SDS011;39812;52.430;16.936;2023-03-31T07:50:25;5.82;;;3.40;;
53903;SDS011;39812;52.430;16.936;2023-03-31T07:52:51;7.80;;;3.72;;
53903;SDS011;39812;52.430;16.936;2023-03-31T07:55:17;14.07;;;4.03;;
53903;SDS011;39812;52.430;16.936;2023-03-31T07:57:44;9.25;;;2.90;;
53903;SDS011;39812;52.430;16.936;2023-03-31T08:00:11;5.53;;;3.05;;
53903;SDS011;39812;52.430;16.936;2023-03-31T08:02:38;10.30;;;3.42;;
53903;SDS011;39812;52.430;16.936;2023-03-31T08:05:05;7.72;;;3.10;;
53903;SDS011;39812;52.430;16.936;2023-03-31T08:07:35;9.73;;;3.17;;
53903;SDS011;39812;52.430;16.936;2023-03-31T08:10:06;7.43;;;3.35;;
53903;SDS011;39812;52.430;16.936;2023-03-31T08:12:35;6.78;;;3.15;;
53903;SDS011;39812;52.430;16.936;2023-03-31T08:15:01;4.93;;;3.05;;
53903;SDS011;39812;52.430;16.936;2023-03-31T08:17:27;8.43;;;3.20;;
53903;SDS011;39812;52.430;16.936;2023-03-31T08:19:53;4.13;;;2.65;;
53903;SDS011;39812;52.430;16.936;2023-03-31T08:22:19;9.15;;;3.63;;
53903;SDS011;39812;52.430;16.936;2023-03-31T08:24:47;5.50;;;3.03;;
53903;SDS011;39812;52.430;16.936;2023-03-31T08:27:13;9.32;;;3.25;;
53903;SDS011;39812;52.430;16.936;2023-03-31T08:29:38;7.32;;;3.28;;
53903;SDS011;39812;52.430;16.936;2023-03-31T08:32:04;4.32;;;2.55;;
53903;SDS011;39812;52.430;16.936;2023-03-31T08:34:31;9.65;;;3.67;;
53903;SDS011;39812;52.430;16.936;2023-03-31T08:36:56;6.75;;;2.83;;
53903;SDS011;39812;52.430;16.936;2023-03-31T08:39:22;6.00;;;2.95;;
53903;SDS011;39812;52.430;16.936;2023-03-31T08:41:51;7.05;;;3.03;;
53903;SDS011;39812;52.430;16.936;2023-03-31T08:46:59;4.25;;;2.45;;
53903;SDS011;39812;52.430;16.936;2023-03-31T08:49:28;5.97;;;2.95;;
53903;SDS011;39812;52.430;16.936;2023-03-31T08:52:03;7.22;;;2.80;;
53903;SDS011;39812;52.430;16.936;2023-03-31T08:54:39;8.90;;;3.63;;
53903;SDS011;39812;52.430;16.936;2023-03-31T08:57:11;8.60;;;2.90;;
53903;SDS011;39812;52.430;16.936;2023-03-31T09:02:28;7.60;;;3.47;;
53903;SDS011;39812;52.430;16.936;2023-03-31T09:18:14;8.20;;;2.40;;
53903;SDS011;39812;52.430;16.936;2023-03-31T09:20:50;7.90;;;2.83;;
53903;SDS011;39812;52.430;16.936;2023-03-31T09:23:26;6.55;;;2.88;;
53903;SDS011;39812;52.430;16.936;2023-03-31T09:25:57;4.20;;;2.63;;
53903;SDS011;39812;52.430;16.936;2023-03-31T09:28:29;12.55;;;4.25;;
53903;SDS011;39812;52.430;16.936;2023-03-31T09:31:12;8.18;;;3.92;;
53903;SDS011;39812;52.430;16.936;2023-03-31T09:33:41;14.00;;;4.03;;
53903;SDS011;39812;52.430;16.936;2023-03-31T09:36:20;6.72;;;2.78;;
53903;SDS011;39812;52.430;16.936;2023-03-31T09:38:49;11.50;;;3.33;;
53903;SDS011;39812;52.430;16.936;2023-03-31T09:41:15;7.35;;;2.50;;
53903;SDS011;39812;52.430;16.936;2023-03-31T09:43:43;10.40;;;2.92;;
53903;SDS011;39812;52.430;16.936;2023-03-31T09:46:29;5.75;;;2.95;;
53903;SDS011;39812;52.430;16.936;2023-03-31T09:48:59;4.72;;;2.63;;
53903;SDS011;39812;52.430;16.936;2023-03-31T09:51:33;9.05;;;2.88;;
53903;SDS011;39812;52.430;16.936;2023-03-31T09:54:09;5.05;;;2.75;;
53903;SDS011;39812;52.430;16.936;2023-03-31T09:56:45;7.95;;;2.85;;
53903;SDS011;39812;52.430;16.936;2023-03-31T09:59:16;6.80;;;2.80;;
53903;SDS011;39812;52.430;16.936;2023-03-31T10:01:44;9.60;;;2.63;;
53903;SDS011;39812;52.430;16.936;2023-03-31T10:04:16;3.88;;;2.15;;
53903;SDS011;39812;52.430;16.936;2023-03-31T10:06:53;7.55;;;2.90;;
53903;SDS011;39812;52.430;16.936;2023-03-31T10:09:20;6.35;;;2.10;;
53903;SDS011;39812;52.430;16.936;2023-03-31T10:12:35;6.45;;;2.50;;
53903;SDS011;39812;52.430;16.936;2023-03-31T10:14:44;5.60;;;2.50;;
53903;SDS011;39812;52.430;16.936;2023-03-31T10:17:16;8.93;;;2.58;;
53903;SDS011;39812;52.430;16.936;2023-03-31T10:19:47;6.28;;;2.72;;
53903;SDS011;39812;52.430;16.936;2023-03-31T10:24:47;6.22;;;2.30;;
53903;SDS011;39812;52.430;16.936;2023-03-31T10:27:20;6.90;;;2.38;;
53903;SDS011;39812;52.430;16.936;2023-03-31T10:29:55;7.05;;;2.58;;
53903;SDS011;39812;52.430;16.936;2023-03-31T10:32:23;7.95;;;2.40;;
53903;SDS011;39812;52.430;16.936;2023-03-31T10:34:52;7.20;;;2.63;;
53903;SDS011;39812;52.430;16.936;2023-03-31T10:37:24;6.20;;;2.17;;
53903;SDS011;39812;52.430;16.936;2023-03-31T10:45:55;6.57;;;2.10;;
53903;SDS011;39812;52.430;16.936;2023-03-31T10:48:31;3.72;;;1.83;;
53903;SDS011;39812;52.430;16.936;2023-03-31T10:51:21;5.63;;;2.17;;
53903;SDS011;39812;52.430;16.936;2023-03-31T10:53:55;6.00;;;2.25;;
53903;SDS011;39812;52.430;16.936;2023-03-31T11:08:13;8.05;;;2.42;;
53903;SDS011;39812;52.430;16.936;2023-03-31T11:10:55;10.32;;;2.70;;
53903;SDS011;39812;52.430;16.936;2023-03-31T11:18:44;7.32;;;2.13;;
53903;SDS011;39812;52.430;16.936;2023-03-31T11:26:50;4.50;;;2.17;;
53903;SDS011;39812;52.430;16.936;2023-03-31T11:38:00;7.07;;;2.63;;
53903;SDS011;39812;52.430;16.936;2023-03-31T11:45:32;7.82;;;2.35;;
53903;SDS011;39812;52.430;16.936;2023-03-31T11:48:03;8.07;;;2.65;;
53903;SDS011;39812;52.430;16.936;2023-03-31T11:50:34;5.35;;;2.65;;
53903;SDS011;39812;52.430;16.936;2023-03-31T11:53:46;6.05;;;2.67;;
53903;SDS011;39812;52.430;16.936;2023-03-31T11:55:57;4.82;;;2.60;;
53903;SDS011;39812;52.430;16.936;2023-03-31T12:06:17;9.05;;;3.25;;
53903;SDS011;39812;52.430;16.936;2023-03-31T12:08:56;5.93;;;2.80;;
53903;SDS011;39812;52.430;16.936;2023-03-31T12:11:38;5.82;;;2.90;;
53903;SDS011;39812;52.430;16.936;2023-03-31T12:14:23;6.53;;;2.92;;
53903;SDS011;39812;52.430;16.936;2023-03-31T12:16:54;7.30;;;3.05;;
53903;SDS011;39812;52.430;16.936;2023-03-31T12:20:10;8.43;;;3.30;;
53903;SDS011;39812;52.430;16.936;2023-03-31T12:22:19;8.07;;;2.80;;
53903;SDS011;39812;52.430;16.936;2023-03-31T12:27:39;7.30;;;3.35;;
53903;SDS011;39812;52.430;16.936;2023-03-31T12:30:08;6.18;;;3.50;;
53903;SDS011;39812;52.430;16.936;2023-03-31T12:33:21;9.05;;;4.03;;
53903;SDS011;39812;52.430;16.936;2023-03-31T12:57:48;6.13;;;3.08;;
53903;SDS011;39812;52.430;16.936;2023-03-31T13:00:26;7.43;;;3.20;;
53903;SDS011;39812;52.430;16.936;2023-03-31T13:05:55;5.97;;;3.28;;
53903;SDS011;39812;52.430;16.936;2023-03-31T13:11:21;8.85;;;4.32;;
53903;SDS011;39812;52.430;16.936;2023-03-31T13:13:53;7.47;;;4.25;;
53903;SDS011;39812;52.430;16.936;2023-03-31T13:16:22;10.13;;;4.45;;
53903;SDS011;39812;52.430;16.936;2023-03-31T13:18:51;8.27;;;4.20;;
53903;SDS011;39812;52.430;16.936;2023-03-31T13:21:18;9.40;;;3.97;;
53903;SDS011;39812;52.430;16.936;2023-03-31T13:23:44;8.48;;;4.38;;
53903;SDS011;39812;52.430;16.936;2023-03-31T13:34:48;6.97;;;4.03;;
53903;SDS011;39812;52.430;16.936;2023-03-31T13:40:06;7.90;;;3.72;;
53903;SDS011;39812;52.430;16.936;2023-03-31T13:45:55;5.07;;;3.00;;
53903;SDS011;39812;52.430;16.936;2023-03-31T13:48:46;5.82;;;3.00;;
53903;SDS011;39812;52.430;16.936;2023-03-31T13:54:15;6.87;;;3.60;;
53903;SDS011;39812;52.430;16.936;2023-03-31T13:56:58;7.97;;;3.17;;
53903;SDS011;39812;52.430;16.936;2023-03-31T13:59:36;8.05;;;3.83;;
53903;SDS011;39812;52.430;16.936;2023-03-31T14:07:58;6.18;;;3.60;;
53903;SDS011;39812;52.430;16.936;2023-03-31T14:10:33;5.53;;;3.13;;
53903;SDS011;39812;52.430;16.936;2023-03-31T14:13:13;6.43;;;3.22;;
53903;SDS011;39812;52.430;16.936;2023-03-31T14:15:47;8.13;;;3.30;;
53903;SDS011;39812;52.430;16.936;2023-03-31T14:18:18;7.85;;;3.83;;
53903;SDS011;39812;52.430;16.936;2023-03-31T14:26:45;6.93;;;3.30;;
53903;SDS011;39812;52.430;16.936;2023-03-31T14:29:34;8.20;;;3.88;;
53903;SDS011;39812;52.430;16.936;2023-03-31T14:32:16;8.90;;;3.65;;
53903;SDS011;39812;52.430;16.936;2023-03-31T14:37:55;8.80;;;4.15;;
53903;SDS011;39812;52.430;16.936;2023-03-31T14:40:21;6.70;;;3.75;;
53903;SDS011;39812;52.430;16.936;2023-03-31T14:42:48;8.38;;;3.90;;
53903;SDS011;39812;52.430;16.936;2023-03-31T14:45:21;10.93;;;4.88;;
53903;SDS011;39812;52.430;16.936;2023-03-31T14:48:32;8.60;;;4.20;;
53903;SDS011;39812;52.430;16.936;2023-03-31T14:50:41;9.65;;;4.63;;
53903;SDS011;39812;52.430;16.936;2023-03-31T14:53:15;10.05;;;4.53;;
53903;SDS011;39812;52.430;16.936;2023-03-31T14:55:42;8.38;;;4.32;;
53903;SDS011;39812;52.430;16.936;2023-03-31T14:58:10;8.73;;;4.72;;
53903;SDS011;39812;52.430;16.936;2023-03-31T15:00:41;6.55;;;3.30;;
53903;SDS011;39812;52.430;16.936;2023-03-31T15:03:08;5.47;;;3.13;;
53903;SDS011;39812;52.430;16.936;2023-03-31T15:05:39;5.45;;;3.40;;
53903;SDS011;39812;52.430;16.936;2023-03-31T15:08:09;6.55;;;3.60;;
53903;SDS011;39812;52.430;16.936;2023-03-31T15:10:41;7.85;;;3.65;;
53903;SDS011;39812;52.430;16.936;2023-03-31T15:13:10;10.93;;;4.68;;
53903;SDS011;39812;52.430;16.936;2023-03-31T15:15:41;10.07;;;4.65;;
53903;SDS011;39812;52.430;16.936;2023-03-31T15:18:13;11.20;;;5.28;;
53903;SDS011;39812;52.430;16.936;2023-03-31T15:20:41;7.45;;;5.38;;
53903;SDS011;39812;52.430;16.936;2023-03-31T15:23:21;9.55;;;5.20;;
53903;SDS011;39812;52.430;16.936;2023-03-31T15:25:58;11.38;;;6.28;;
53903;SDS011;39812;52.430;16.936;2023-03-31T15:28:28;13.73;;;5.90;;
53903;SDS011;39812;52.430;16.936;2023-03-31T15:31:01;11.45;;;5.63;;
53903;SDS011;39812;52.430;16.936;2023-03-31T15:33:32;11.07;;;6.13;;
53903;SDS011;39812;52.430;16.936;2023-03-31T15:36:05;12.93;;;6.63;;
53903;SDS011;39812;52.430;16.936;2023-03-31T15:38:32;14.02;;;6.28;;
53903;SDS011;39812;52.430;16.936;2023-03-31T15:40:58;10.13;;;5.75;;
53903;SDS011;39812;52.430;16.936;2023-03-31T15:43:28;11.80;;;6.47;;
53903;SDS011;39812;52.430;16.936;2023-03-31T15:45:58;10.60;;;5.55;;
53903;SDS011;39812;52.430;16.936;2023-03-31T15:51:02;10.60;;;5.40;;
53903;SDS011;39812;52.430;16.936;2023-03-31T15:56:03;15.60;;;5.90;;
53903;SDS011;39812;52.430;16.936;2023-03-31T15:58:44;10.82;;;6.35;;
53903;SDS011;39812;52.430;16.936;2023-03-31T16:01:11;15.32;;;6.57;;
53903;SDS011;39812;52.430;16.936;2023-03-31T16:03:40;14.38;;;7.25;;
53903;SDS011;39812;52.430;16.936;2023-03-31T16:11:06;13.80;;;6.90;;
53903;SDS011;39812;52.430;16.936;2023-03-31T16:13:42;12.05;;;6.55;;
53903;SDS011;39812;52.430;16.936;2023-03-31T16:16:14;13.07;;;7.00;;
53903;SDS011;39812;52.430;16.936;2023-03-31T16:18:53;15.48;;;8.18;;
53903;SDS011;39812;52.430;16.936;2023-03-31T16:21:29;15.90;;;7.78;;
53903;SDS011;39812;52.430;16.936;2023-03-31T16:24:04;14.40;;;7.57;;
53903;SDS011;39812;52.430;16.936;2023-03-31T16:26:30;15.60;;;8.18;;
53903;SDS011;39812;52.430;16.936;2023-03-31T16:28:56;13.95;;;8.20;;
53903;SDS011;39812;52.430;16.936;2023-03-31T16:31:39;15.82;;;8.32;;
53903;SDS011;39812;52.430;16.936;2023-03-31T16:34:06;15.32;;;7.88;;
53903;SDS011;39812;52.430;16.936;2023-03-31T16:36:33;14.30;;;7.47;;
53903;SDS011;39812;52.430;16.936;2023-03-31T16:38:59;16.42;;;8.27;;
53903;SDS011;39812;52.430;16.936;2023-03-31T16:41:29;18.15;;;9.45;;
53903;SDS011;39812;52.430;16.936;2023-03-31T16:43:59;19.42;;;10.45;;
53903;SDS011;39812;52.430;16.936;2023-03-31T16:46:25;20.25;;;11.07;;
53903;SDS011;39812;52.430;16.936;2023-03-31T16:48:51;21.33;;;12.27;;
53903;SDS011;39812;52.430;16.936;2023-03-31T16:51:17;19.13;;;11.10;;
53903;SDS011;39812;52.430;16.936;2023-03-31T16:53:44;20.15;;;10.23;;
53903;SDS011;39812;52.430;16.936;2023-03-31T16:56:11;17.98;;;10.45;;
53903;SDS011;39812;52.430;16.936;2023-03-31T16:58:38;16.27;;;10.30;;
53903;SDS011;39812;52.430;16.936;2023-03-31T17:01:05;12.10;;;7.85;;
53903;SDS011;39812;52.430;16.936;2023-03-31T17:03:32;13.82;;;8.93;;
53903;SDS011;39812;52.430;16.936;2023-03-31T17:06:02;14.77;;;8.80;;
53903;SDS011;39812;52.430;16.936;2023-03-31T17:08:30;15.43;;;8.93;;
53903;SDS011;39812;52.430;16.936;2023-03-31T17:11:00;10.70;;;6.53;;
53903;SDS011;39812;52.430;16.936;2023-03-31T17:13:28;11.50;;;6.55;;
53903;SDS011;39812;52.430;16.936;2023-03-31T17:15:54;10.90;;;6.18;;
53903;SDS011;39812;52.430;16.936;2023-03-31T17:18:20;12.23;;;6.38;;
53903;SDS011;39812;52.430;16.936;2023-03-31T17:20:46;11.57;;;6.43;;
53903;SDS011;39812;52.430;16.936;2023-03-31T17:23:11;10.00;;;6.60;;
53903;SDS011;39812;52.430;16.936;2023-03-31T17:25:38;8.27;;;5.47;;
53903;SDS011;39812;52.430;16.936;2023-03-31T17:28:04;10.18;;;6.10;;
53903;SDS011;39812;52.430;16.936;2023-03-31T17:30:30;10.55;;;6.97;;
53903;SDS011;39812;52.430;16.936;2023-03-31T17:32:56;13.07;;;7.15;;
53903;SDS011;39812;52.430;16.936;2023-03-31T17:35:23;11.05;;;6.55;;
53903;SDS011;39812;52.430;16.936;2023-03-31T17:37:49;13.07;;;7.57;;
53903;SDS011;39812;52.430;16.936;2023-03-31T17:40:20;9.90;;;7.18;;
53903;SDS011;39812;52.430;16.936;2023-03-31T17:42:46;15.18;;;8.48;;
53903;SDS011;39812;52.430;16.936;2023-03-31T17:45:12;14.68;;;9.27;;
53903;SDS011;39812;52.430;16.936;2023-03-31T17:47:38;14.50;;;8.48;;
53903;SDS011;39812;52.430;16.936;2023-03-31T17:50:05;11.93;;;7.65;;
53903;SDS011;39812;52.430;16.936;2023-03-31T17:52:32;14.75;;;8.02;;
53903;SDS011;39812;52.430;16.936;2023-03-31T17:54:59;14.43;;;8.98;;
53903;SDS011;39812;52.430;16.936;2023-03-31T17:57:26;10.32;;;6.70;;
53903;SDS011;39812;52.430;16.936;2023-03-31T17:59:52;14.20;;;8.85;;